Time;durP1;ratioP1;P1;durP2;ratioP2;P2;SDS_P1;SDS_P2;PMS_P1;PMS_P2;Temp;Humidity;BMP_temperature;BMP_pressure;BME280_temperature;BME280_humidity;BME280_pressure;Samples;Min_cycle;Max_cycle;Signal;HPM_P1;HPM_P2
2021/12/24 00:00:00;;;;;;;48.90;28.40;;;2.40;99.90;;;;;;4976887;28;20204;-63
2021/12/24 00:02:26;;;;;;;44.50;27.87;;;2.40;99.90;;;;;;4981105;28;20195;-63
2021/12/24 00:04:51;;;;;;;45.00;28.43;;;2.50;99.90;;;;;;4980644;28;20311;-63
2021/12/24 00:07:17;;;;;;;44.00;27.73;;;2.40;99.90;;;;;;4987802;28;20231;-64
2021/12/24 00:09:42;;;;;;;47.83;27.50;;;2.40;99.90;;;;;;4986606;28;20217;-62
2021/12/24 00:12:15;;;;;;;46.03;27.20;;;2.50;99.90;;;;;;4988411;28;20252;-62
2021/12/24 00:14:45;;;;;;;44.60;26.13;;;2.50;99.90;;;;;;4977402;28;20201;-63
2021/12/24 00:17:14;;;;;;;49.20;28.70;;;2.60;99.90;;;;;;4988861;28;20185;-62
2021/12/24 00:19:59;;;;;;;50.63;28.37;;;2.60;99.90;;;;;;4982482;28;20204;-68
2021/12/24 00:36:10;;;;;;;48.20;27.87;;;2.60;99.90;;;;;;4968569;28;20385;-63
2021/12/24 00:38:35;;;;;;;43.07;26.47;;;2.60;99.90;;;;;;4981166;28;20279;-62
2021/12/24 00:41:01;;;;;;;42.37;27.50;;;2.60;99.90;;;;;;4978764;28;20189;-62
2021/12/24 00:43:26;;;;;;;47.20;27.10;;;2.50;99.90;;;;;;4970019;28;20219;-63
2021/12/24 00:45:51;;;;;;;47.23;28.53;;;2.60;99.90;;;;;;4976485;28;20196;-63
2021/12/24 00:48:19;;;;;;;42.30;28.27;;;2.60;99.90;;;;;;4984631;28;20303;-62
2021/12/24 00:55:59;;;;;;;43.97;27.53;;;2.60;99.90;;;;;;4969646;28;20528;-63
2021/12/24 00:58:25;;;;;;;46.07;28.87;;;2.60;99.90;;;;;;4986250;28;20208;-63
2021/12/24 01:00:50;;;;;;;42.93;27.23;;;2.70;99.90;;;;;;4985016;28;20220;-63
2021/12/24 01:03:16;;;;;;;43.77;27.37;;;2.70;99.90;;;;;;4980844;28;20284;-63
2021/12/24 01:05:42;;;;;;;44.73;27.27;;;2.70;99.90;;;;;;4975167;28;20217;-63
2021/12/24 01:08:10;;;;;;;45.97;28.47;;;2.70;99.90;;;;;;4986011;28;20239;-63
2021/12/24 01:10:38;;;;;;;47.70;27.83;;;2.70;99.90;;;;;;4976254;28;20216;-63
2021/12/24 01:13:04;;;;;;;43.50;25.50;;;2.70;99.90;;;;;;4984744;28;20227;-61
2021/12/24 01:15:32;;;;;;;44.70;27.47;;;2.70;99.90;;;;;;4976340;28;20618;-62
2021/12/24 01:18:13;;;;;;;42.33;25.80;;;2.70;99.90;;;;;;4982389;28;20205;-62
2021/12/24 01:20:46;;;;;;;42.87;26.20;;;2.70;99.90;;;;;;4970625;28;20221;-62
2021/12/24 01:23:31;;;;;;;45.33;25.80;;;2.60;99.90;;;;;;4987096;28;20207;-62
2021/12/24 01:26:05;;;;;;;42.13;27.03;;;2.70;99.90;;;;;;4967488;28;20209;-62
2021/12/24 01:28:59;;;;;;;43.37;27.20;;;2.70;99.90;;;;;;4963271;28;20669;-62
2021/12/24 01:44:51;;;;;;;38.67;24.20;;;2.80;99.90;;;;;;4976046;28;20235;-62
2021/12/24 01:47:16;;;;;;;43.00;26.77;;;3.00;99.90;;;;;;4983621;28;20251;-62
2021/12/24 01:49:42;;;;;;;39.03;25.20;;;2.90;99.90;;;;;;4984357;28;20515;-62
2021/12/24 01:52:08;;;;;;;39.60;25.13;;;3.00;99.90;;;;;;4981191;28;20193;-62
2021/12/24 01:54:33;;;;;;;41.80;25.40;;;2.90;99.90;;;;;;4983738;28;20320;-62
2021/12/24 01:56:59;;;;;;;43.30;25.93;;;3.00;99.90;;;;;;4974621;28;20623;-62
2021/12/24 01:59:24;;;;;;;36.33;24.47;;;3.00;99.90;;;;;;4984905;28;20204;-62
2021/12/24 02:01:50;;;;;;;39.80;24.33;;;3.00;99.90;;;;;;4971302;28;20209;-61
2021/12/24 02:04:17;;;;;;;34.47;23.20;;;3.00;99.90;;;;;;4980398;28;20235;-61
2021/12/24 02:06:43;;;;;;;34.53;21.37;;;3.10;99.90;;;;;;4979176;28;20219;-61
2021/12/24 02:09:10;;;;;;;38.37;24.20;;;3.10;99.90;;;;;;4984074;28;20200;-61
2021/12/24 02:11:38;;;;;;;34.90;21.80;;;3.10;99.90;;;;;;4978469;28;20194;-62
2021/12/24 02:14:18;;;;;;;30.80;21.37;;;3.00;99.90;;;;;;4984061;28;20200;-63
2021/12/24 02:30:18;;;;;;;26.20;18.20;;;3.20;99.90;;;;;;4978634;28;20623;-62
2021/12/24 02:32:43;;;;;;;28.87;19.17;;;3.20;99.90;;;;;;4976642;28;20659;-62
2021/12/24 02:35:10;;;;;;;29.97;20.97;;;3.30;99.90;;;;;;4975690;28;20331;-62
2021/12/24 02:37:36;;;;;;;26.70;18.80;;;3.20;99.90;;;;;;4977240;28;20251;-62
2021/12/24 02:40:04;;;;;;;25.57;18.37;;;3.30;99.90;;;;;;4974827;28;20335;-63
2021/12/24 02:42:31;;;;;;;27.50;18.60;;;3.30;99.90;;;;;;4976235;28;20206;-62
2021/12/24 02:44:56;;;;;;;24.53;17.20;;;3.30;99.90;;;;;;4974283;28;20295;-62
2021/12/24 02:55:07;;;;;;;27.13;18.20;;;3.30;99.90;;;;;;4970089;28;20212;-61
2021/12/24 02:57:35;;;;;;;26.13;17.77;;;3.30;99.90;;;;;;4976142;28;20320;-62
2021/12/24 03:00:07;;;;;;;23.57;15.90;;;3.30;99.90;;;;;;4976328;28;20699;-61
2021/12/24 03:02:34;;;;;;;23.83;17.93;;;3.40;99.90;;;;;;4974217;28;20189;-61
2021/12/24 03:05:01;;;;;;;23.53;16.93;;;3.40;99.90;;;;;;4978214;28;20208;-61
2021/12/24 03:07:26;;;;;;;27.37;17.37;;;3.40;99.90;;;;;;4980680;28;20212;-61
2021/12/24 03:09:52;;;;;;;22.40;16.40;;;3.40;99.90;;;;;;4979828;28;20201;-62
2021/12/24 03:12:18;;;;;;;24.07;17.20;;;3.40;99.90;;;;;;4980979;28;20193;-60
2021/12/24 03:14:44;;;;;;;26.50;16.77;;;3.40;99.90;;;;;;4978386;28;20229;-61
2021/12/24 03:17:13;;;;;;;25.80;17.17;;;3.40;99.90;;;;;;4978041;28;20240;-61
2021/12/24 03:19:39;;;;;;;26.53;17.67;;;3.40;99.90;;;;;;4978342;28;20215;-60
2021/12/24 03:22:27;;;;;;;24.50;17.33;;;3.40;99.90;;;;;;4974230;28;20205;-61
2021/12/24 03:24:53;;;;;;;24.47;16.77;;;3.50;99.90;;;;;;4978340;28;20213;-61
2021/12/24 03:27:18;;;;;;;28.57;16.93;;;3.60;99.90;;;;;;4980855;28;20590;-61
2021/12/24 03:29:44;;;;;;;25.53;18.50;;;3.50;99.90;;;;;;4978657;28;20759;-61
2021/12/24 03:32:09;;;;;;;24.10;17.53;;;3.60;99.90;;;;;;4980489;28;20197;-61
2021/12/24 03:34:35;;;;;;;21.23;16.93;;;3.50;99.90;;;;;;4977803;28;20560;-62
2021/12/24 03:37:02;;;;;;;29.40;18.17;;;3.50;99.90;;;;;;4978710;28;20203;-62
2021/12/24 03:39:28;;;;;;;26.27;17.80;;;3.50;99.90;;;;;;4978867;28;20228;-62
2021/12/24 03:41:54;;;;;;;27.30;17.57;;;3.60;99.90;;;;;;4977949;28;20173;-62
2021/12/24 03:44:20;;;;;;;24.67;17.90;;;3.60;99.90;;;;;;4979798;28;20260;-61
2021/12/24 03:47:02;;;;;;;26.73;17.87;;;3.60;99.90;;;;;;4977029;28;20695;-62
2021/12/24 03:52:35;;;;;;;23.07;16.27;;;3.70;99.90;;;;;;4976291;28;20216;-61
2021/12/24 03:55:00;;;;;;;27.57;18.30;;;3.70;99.90;;;;;;4979681;28;20177;-61
2021/12/24 03:57:33;;;;;;;24.77;15.87;;;3.70;99.90;;;;;;4977373;28;20207;-61
2021/12/24 04:00:03;;;;;;;21.53;15.10;;;3.80;99.90;;;;;;4979437;28;20188;-62
2021/12/24 04:02:28;;;;;;;22.73;16.10;;;3.80;99.90;;;;;;4977471;28;20209;-61
2021/12/24 04:04:54;;;;;;;24.60;17.27;;;3.80;99.90;;;;;;4977766;28;20615;-62
2021/12/24 04:07:19;;;;;;;27.70;16.63;;;3.80;99.90;;;;;;4977460;28;20304;-61
2021/12/24 04:09:56;;;;;;;23.10;15.30;;;3.80;99.90;;;;;;4977258;28;20264;-60
2021/12/24 04:12:21;;;;;;;20.50;15.93;;;3.80;99.90;;;;;;4978025;28;20276;-61
2021/12/24 04:14:47;;;;;;;21.87;15.80;;;3.90;99.90;;;;;;4976960;28;20181;-62
2021/12/24 04:17:12;;;;;;;21.87;16.27;;;3.90;99.90;;;;;;4974357;28;20207;-61
2021/12/24 04:25:06;;;;;;;21.93;16.20;;;3.90;99.90;;;;;;4976815;28;20771;-62
2021/12/24 04:27:32;;;;;;;24.83;16.93;;;3.90;99.90;;;;;;4978749;28;20316;-62
2021/12/24 04:30:07;;;;;;;21.73;16.07;;;3.90;99.90;;;;;;4979389;28;20184;-62
2021/12/24 04:32:51;;;;;;;26.77;16.27;;;4.00;99.90;;;;;;4973252;28;20208;-62
2021/12/24 04:38:28;;;;;;;20.80;14.70;;;4.10;99.90;;;;;;4976992;28;20214;-62
2021/12/24 04:51:57;;;;;;;20.47;13.83;;;4.20;99.90;;;;;;4976162;28;20247;-62
2021/12/24 05:02:49;;;;;;;19.60;13.23;;;4.30;99.90;;;;;;4976709;28;20236;-62
2021/12/24 05:05:23;;;;;;;18.37;12.10;;;4.40;99.90;;;;;;4975922;28;20187;-60
2021/12/24 05:08:13;;;;;;;17.57;12.03;;;4.40;99.90;;;;;;4975482;28;20230;-61
2021/12/24 05:10:38;;;;;;;18.20;12.40;;;4.50;99.90;;;;;;4976207;28;20189;-61
2021/12/24 05:13:05;;;;;;;14.57;10.90;;;4.50;99.90;;;;;;4975872;28;20201;-61
2021/12/24 05:15:34;;;;;;;14.73;9.93;;;4.40;99.90;;;;;;4978382;28;20217;-60
2021/12/24 05:23:09;;;;;;;16.47;10.13;;;4.50;99.90;;;;;;4974139;28;20686;-61
2021/12/24 05:25:40;;;;;;;14.03;9.60;;;4.50;99.90;;;;;;4977375;28;20197;-61
2021/12/24 05:28:06;;;;;;;13.50;9.40;;;4.50;99.90;;;;;;4972912;28;20228;-61
2021/12/24 05:30:31;;;;;;;12.77;9.47;;;4.50;99.90;;;;;;4977162;28;20205;-61
2021/12/24 05:32:57;;;;;;;11.23;9.23;;;4.60;99.90;;;;;;4975896;28;20290;-60
2021/12/24 05:35:22;;;;;;;13.83;9.33;;;4.50;99.90;;;;;;4979186;28;20202;-61
2021/12/24 05:37:47;;;;;;;16.03;9.57;;;4.50;99.90;;;;;;4973963;28;20209;-61
2021/12/24 05:40:13;;;;;;;16.40;9.73;;;4.50;99.90;;;;;;4978984;28;20243;-60
2021/12/24 05:42:39;;;;;;;12.63;8.03;;;4.50;99.90;;;;;;4976728;28;20196;-61
2021/12/24 05:45:07;;;;;;;10.23;7.97;;;4.60;99.90;;;;;;4977402;28;20210;-61
2021/12/24 05:47:33;;;;;;;12.33;7.27;;;4.60;99.90;;;;;;4975873;28;20225;-61
2021/12/24 05:50:00;;;;;;;8.73;6.63;;;4.70;99.90;;;;;;4975326;28;20181;-61
2021/12/24 05:52:26;;;;;;;9.33;7.37;;;4.60;99.90;;;;;;4975706;28;20604;-61
2021/12/24 05:54:52;;;;;;;8.97;6.67;;;4.60;99.90;;;;;;4975097;28;20206;-61
2021/12/24 05:57:18;;;;;;;9.03;6.67;;;4.60;99.90;;;;;;4978461;28;20867;-61
2021/12/24 05:59:44;;;;;;;8.90;6.37;;;4.60;99.90;;;;;;4973404;28;20193;-61
2021/12/24 06:02:09;;;;;;;6.90;6.20;;;4.60;99.90;;;;;;4979414;28;20207;-61
2021/12/24 06:04:35;;;;;;;6.90;5.77;;;4.60;99.90;;;;;;4973121;28;20605;-61
2021/12/24 06:07:00;;;;;;;8.73;6.47;;;4.60;99.90;;;;;;4977000;28;20698;-61
2021/12/24 06:09:26;;;;;;;6.87;5.90;;;4.70;99.90;;;;;;4973862;28;20201;-61
2021/12/24 06:11:51;;;;;;;7.73;6.70;;;4.70;99.90;;;;;;4975595;28;20206;-61
2021/12/24 06:14:17;;;;;;;7.37;5.80;;;4.70;99.90;;;;;;4973545;28;20220;-60
2021/12/24 06:16:47;;;;;;;6.50;5.80;;;4.70;99.90;;;;;;4978331;28;20258;-59
2021/12/24 06:19:14;;;;;;;6.07;5.47;;;4.70;99.90;;;;;;4960617;28;20201;-59
2021/12/24 06:21:40;;;;;;;5.23;4.73;;;4.70;99.90;;;;;;4984225;28;20195;-59
2021/12/24 06:24:05;;;;;;;6.57;5.40;;;4.80;99.90;;;;;;4975795;28;20205;-59
2021/12/24 06:26:31;;;;;;;4.80;4.30;;;4.80;99.90;;;;;;4986128;28;20222;-60
2021/12/24 06:28:56;;;;;;;5.73;4.80;;;4.80;99.90;;;;;;4979547;28;20205;-59
2021/12/24 06:31:22;;;;;;;6.20;5.60;;;4.80;99.90;;;;;;4981186;28;20201;-60
2021/12/24 06:33:47;;;;;;;5.23;4.80;;;4.80;99.90;;;;;;4981819;28;20287;-59
2021/12/24 06:36:13;;;;;;;7.03;4.63;;;4.80;99.90;;;;;;4985732;28;20237;-59
2021/12/24 06:38:39;;;;;;;5.97;5.03;;;4.80;99.90;;;;;;4975624;28;20692;-59
2021/12/24 06:41:04;;;;;;;5.00;4.50;;;4.80;99.90;;;;;;4979801;28;20283;-60
2021/12/24 06:43:30;;;;;;;5.73;4.57;;;4.80;99.90;;;;;;4977665;28;20201;-59
2021/12/24 06:45:57;;;;;;;6.50;5.50;;;4.80;99.90;;;;;;4982447;28;20226;-60
2021/12/24 06:48:22;;;;;;;5.70;5.20;;;4.80;99.90;;;;;;4983617;28;20722;-60
2021/12/24 06:50:50;;;;;;;5.97;5.37;;;4.90;99.90;;;;;;4976651;28;20275;-60
2021/12/24 06:53:15;;;;;;;5.53;5.03;;;4.90;99.90;;;;;;4984104;28;20545;-61
2021/12/24 06:55:41;;;;;;;5.87;5.03;;;4.90;99.90;;;;;;4975433;28;20192;-60
2021/12/24 06:58:07;;;;;;;5.23;4.73;;;4.90;99.90;;;;;;4979973;28;20287;-60
2021/12/24 07:00:33;;;;;;;6.20;5.00;;;4.90;99.90;;;;;;4979993;28;20200;-60
2021/12/24 07:02:59;;;;;;;5.33;4.83;;;5.00;99.90;;;;;;4983209;28;20193;-60
2021/12/24 07:05:24;;;;;;;6.63;5.47;;;5.00;99.90;;;;;;4973923;28;20543;-61
2021/12/24 07:07:50;;;;;;;4.90;4.50;;;5.00;99.90;;;;;;4980030;28;20201;-61
2021/12/24 07:10:15;;;;;;;4.80;4.30;;;5.00;99.90;;;;;;4976534;28;20188;-60
2021/12/24 07:12:41;;;;;;;5.37;4.23;;;5.00;99.90;;;;;;4984986;28;20453;-61
2021/12/24 07:15:07;;;;;;;4.90;4.13;;;5.00;99.90;;;;;;4973546;28;20220;-60
2021/12/24 07:17:33;;;;;;;5.10;4.60;;;5.00;99.90;;;;;;4984838;28;20193;-60
2021/12/24 07:19:58;;;;;;;4.50;4.10;;;5.00;99.90;;;;;;4974146;28;20255;-61
2021/12/24 07:22:24;;;;;;;6.27;3.97;;;5.00;99.90;;;;;;4985611;28;20648;-59
2021/12/24 07:24:49;;;;;;;4.00;3.70;;;5.00;99.90;;;;;;4969818;28;20203;-59
2021/12/24 07:27:15;;;;;;;4.13;3.73;;;5.10;99.90;;;;;;4985298;28;20292;-60
2021/12/24 07:29:40;;;;;;;5.47;3.93;;;5.10;99.90;;;;;;4973201;28;20205;-60
2021/12/24 07:32:06;;;;;;;3.27;3.07;;;5.20;99.90;;;;;;4985388;28;20627;-59
2021/12/24 07:34:33;;;;;;;3.43;3.17;;;5.20;99.90;;;;;;4973874;28;20671;-60
2021/12/24 07:36:58;;;;;;;3.03;2.83;;;5.20;99.90;;;;;;4983675;28;20572;-62
2021/12/24 07:39:24;;;;;;;3.77;2.97;;;5.20;99.90;;;;;;4976230;28;20251;-59
2021/12/24 07:41:50;;;;;;;4.33;3.70;;;5.10;99.90;;;;;;4981497;28;20185;-58
2021/12/24 07:44:19;;;;;;;3.10;2.90;;;5.10;99.90;;;;;;4975648;28;20233;-59
2021/12/24 07:46:50;;;;;;;4.00;3.60;;;5.20;99.90;;;;;;4985013;28;20205;-65
2021/12/24 07:49:30;;;;;;;3.53;3.23;;;5.20;99.90;;;;;;4977805;28;20229;-66
2021/12/24 07:52:08;;;;;;;3.50;3.20;;;5.20;99.90;;;;;;4977597;28;20200;-66
2021/12/24 07:54:36;;;;;;;3.80;3.50;;;5.20;99.90;;;;;;4968907;28;20204;-66
2021/12/24 07:57:02;;;;;;;3.20;2.90;;;5.30;99.90;;;;;;4988694;28;20592;-65
2021/12/24 07:59:29;;;;;;;3.70;3.40;;;5.30;99.90;;;;;;4973395;28;20573;-65
2021/12/24 08:01:55;;;;;;;4.27;3.87;;;5.30;99.90;;;;;;4988118;28;20545;-64
2021/12/24 08:04:21;;;;;;;4.37;3.93;;;5.30;99.90;;;;;;4978022;28;20201;-64
2021/12/24 08:06:46;;;;;;;3.93;3.53;;;5.30;99.90;;;;;;4988536;28;20694;-65
2021/12/24 08:09:12;;;;;;;4.80;4.30;;;5.30;99.90;;;;;;4975626;28;20280;-67
2021/12/24 08:11:38;;;;;;;12.47;4.30;;;5.30;99.90;;;;;;4988896;28;20189;-70
2021/12/24 08:14:05;;;;;;;4.70;4.30;;;5.40;99.90;;;;;;4975642;28;20201;-63
2021/12/24 08:16:31;;;;;;;4.87;4.03;;;5.60;99.90;;;;;;4970680;28;20255;-63
2021/12/24 08:18:58;;;;;;;4.37;3.97;;;5.60;99.90;;;;;;4968740;28;20201;-63
2021/12/24 08:21:24;;;;;;;4.43;4.03;;;5.70;99.90;;;;;;4969675;28;20192;-63
2021/12/24 08:23:49;;;;;;;4.23;3.83;;;5.80;99.90;;;;;;4968724;28;20201;-64
2021/12/24 08:26:16;;;;;;;5.23;4.43;;;5.90;99.90;;;;;;4969884;28;20200;-64
2021/12/24 08:28:42;;;;;;;4.17;3.70;;;5.90;99.90;;;;;;4967212;28;20275;-64
2021/12/24 08:31:08;;;;;;;3.73;3.37;;;5.90;99.90;;;;;;4968645;28;20190;-65
2021/12/24 08:33:34;;;;;;;3.77;3.40;;;5.90;99.90;;;;;;4973665;28;20510;-65
2021/12/24 08:36:02;;;;;;;4.00;3.70;;;6.00;99.90;;;;;;4976540;28;20206;-64
2021/12/24 08:38:27;;;;;;;4.07;3.77;;;6.00;99.90;;;;;;4969050;28;20218;-62
2021/12/24 08:40:53;;;;;;;4.17;3.87;;;6.10;99.90;;;;;;4968491;28;20301;-63
2021/12/24 08:43:18;;;;;;;4.13;3.73;;;6.00;99.90;;;;;;4975144;28;20181;-63
2021/12/24 08:45:44;;;;;;;3.20;3.00;;;6.00;99.90;;;;;;4987399;28;20808;-61
2021/12/24 08:48:09;;;;;;;4.57;3.57;;;6.00;99.90;;;;;;4969500;28;20692;-62
2021/12/24 08:50:35;;;;;;;4.50;4.03;;;6.10;99.90;;;;;;4986873;28;20647;-62
2021/12/24 08:53:01;;;;;;;4.37;3.67;;;6.10;99.90;;;;;;4976061;28;20201;-62
2021/12/24 08:55:26;;;;;;;3.83;3.43;;;6.20;99.90;;;;;;4986328;28;20654;-62
2021/12/24 08:57:52;;;;;;;4.57;4.23;;;6.20;99.90;;;;;;4980846;28;20205;-62
2021/12/24 09:00:20;;;;;;;3.70;3.40;;;6.10;99.90;;;;;;4982480;28;20208;-62
2021/12/24 09:02:46;;;;;;;3.63;3.33;;;6.10;99.90;;;;;;4969055;28;20613;-62
2021/12/24 09:05:13;;;;;;;3.70;3.00;;;6.20;99.90;;;;;;4984336;28;20307;-63
2021/12/24 09:07:40;;;;;;;3.20;2.90;;;6.30;99.90;;;;;;4971086;28;20213;-64
2021/12/24 09:10:08;;;;;;;3.10;2.80;;;6.30;99.90;;;;;;4984653;28;20655;-65
2021/12/24 09:12:34;;;;;;;3.57;2.73;;;6.20;99.90;;;;;;4973694;28;20284;-66
2021/12/24 09:14:59;;;;;;;3.63;2.60;;;6.30;99.90;;;;;;4972486;28;20269;-63
2021/12/24 09:17:27;;;;;;;3.27;2.67;;;6.30;99.90;;;;;;4966764;28;20198;-62
2021/12/24 09:19:54;;;;;;;3.50;2.70;;;6.40;99.90;;;;;;4968046;28;20272;-64
2021/12/24 09:22:27;;;;;;;4.37;2.77;;;6.50;99.90;;;;;;4969881;28;20198;-64
2021/12/24 09:24:54;;;;;;;2.03;1.83;;;6.50;99.90;;;;;;4967694;28;20220;-69
2021/12/24 09:27:19;;;;;;;2.00;1.90;;;6.40;99.90;;;;;;4969689;28;20218;-66
2021/12/24 09:29:45;;;;;;;2.10;1.90;;;6.30;99.90;;;;;;4967479;28;20194;-65
2021/12/24 09:32:10;;;;;;;1.90;1.80;;;6.20;99.90;;;;;;4965217;28;20292;-65
2021/12/24 09:34:36;;;;;;;2.00;1.90;;;6.10;99.90;;;;;;4970827;28;20212;-65
2021/12/24 09:37:02;;;;;;;1.93;1.83;;;6.00;99.90;;;;;;4968059;28;20240;-65
2021/12/24 09:39:28;;;;;;;2.70;2.13;;;6.00;99.90;;;;;;4966349;28;20229;-66
2021/12/24 09:41:53;;;;;;;2.63;2.10;;;6.00;99.90;;;;;;4971630;28;20198;-66
2021/12/24 09:44:19;;;;;;;2.30;2.10;;;5.90;99.90;;;;;;4968028;28;20232;-66
2021/12/24 09:46:45;;;;;;;2.13;1.93;;;5.90;99.90;;;;;;4966770;28;20201;-66
2021/12/24 09:49:12;;;;;;;2.03;1.93;;;5.90;99.90;;;;;;4965036;28;20617;-66
2021/12/24 09:51:42;;;;;;;1.97;1.87;;;5.90;99.90;;;;;;4964240;28;20170;-66
2021/12/24 09:54:17;;;;;;;2.00;1.90;;;5.90;99.90;;;;;;4966195;28;20201;-66
2021/12/24 09:56:44;;;;;;;2.10;2.00;;;5.80;99.90;;;;;;4966464;28;20667;-65
2021/12/24 09:59:10;;;;;;;2.37;1.60;;;5.80;99.90;;;;;;4965842;28;20570;-65
2021/12/24 10:01:42;;;;;;;1.87;1.77;;;5.80;99.90;;;;;;4970208;28;20647;-65
2021/12/24 10:04:12;;;;;;;2.07;1.97;;;5.80;99.90;;;;;;4968837;28;20216;-65
2021/12/24 10:06:39;;;;;;;2.60;2.40;;;5.80;99.90;;;;;;4967941;28;20213;-64
2021/12/24 10:09:12;;;;;;;2.40;2.20;;;5.80;99.90;;;;;;4966851;28;20212;-65
2021/12/24 10:11:46;;;;;;;2.33;1.93;;;5.80;99.90;;;;;;4966518;28;20182;-65
2021/12/24 10:14:13;;;;;;;2.57;2.20;;;5.80;99.90;;;;;;4967927;28;20853;-65
2021/12/24 10:16:42;;;;;;;2.77;2.57;;;5.80;99.90;;;;;;4966500;28;20264;-66
2021/12/24 10:19:09;;;;;;;3.43;3.13;;;5.70;99.90;;;;;;4966484;28;20683;-65
2021/12/24 10:21:35;;;;;;;2.43;2.23;;;5.70;99.90;;;;;;4967298;28;20182;-65
2021/12/24 10:24:10;;;;;;;3.43;2.60;;;5.70;99.90;;;;;;4944635;28;20260;-64
2021/12/24 10:26:44;;;;;;;2.80;2.60;;;5.80;99.90;;;;;;4975037;28;20196;-65
2021/12/24 10:29:15;;;;;;;2.60;2.40;;;5.80;99.90;;;;;;4967901;28;20248;-65
2021/12/24 10:31:46;;;;;;;2.23;2.13;;;5.70;99.90;;;;;;4966981;28;20204;-64
2021/12/24 10:34:35;;;;;;;2.80;2.33;;;5.70;99.90;;;;;;4978902;28;20233;-66
2021/12/24 10:37:18;;;;;;;2.00;1.90;;;5.70;99.90;;;;;;4965852;28;20652;-65
2021/12/24 10:39:50;;;;;;;2.47;2.27;;;5.60;99.90;;;;;;4964599;28;20229;-65
2021/12/24 10:42:23;;;;;;;2.83;2.20;;;5.60;99.90;;;;;;4985245;28;20616;-63
2021/12/24 10:44:52;;;;;;;1.80;1.70;;;5.70;99.90;;;;;;4973158;28;20201;-65
2021/12/24 10:47:19;;;;;;;3.70;1.90;;;5.60;99.90;;;;;;4985475;28;20325;-65
2021/12/24 10:50:09;;;;;;;2.73;1.60;;;5.60;99.90;;;;;;4983368;28;20231;-64
2021/12/24 10:55:28;;;;;;;1.70;1.60;;;5.50;99.90;;;;;;4960840;28;20205;-66
2021/12/24 10:57:59;;;;;;;2.40;2.20;;;5.40;99.90;;;;;;4970666;28;20243;-65
2021/12/24 11:00:27;;;;;;;2.17;2.00;;;5.40;99.90;;;;;;4961201;28;20240;-66
2021/12/24 11:03:02;;;;;;;2.20;2.10;;;5.40;99.90;;;;;;4985501;28;20291;-64
2021/12/24 11:05:38;;;;;;;2.27;2.17;;;5.40;99.90;;;;;;4976269;28;20234;-64
2021/12/24 11:08:07;;;;;;;2.80;2.60;;;5.40;99.90;;;;;;4985169;28;20208;-65
2021/12/24 11:10:37;;;;;;;2.40;2.20;;;5.40;99.90;;;;;;4980009;28;20213;-66
2021/12/24 11:13:10;;;;;;;2.97;2.57;;;5.40;99.90;;;;;;4952227;28;20185;-65
2021/12/24 11:15:50;;;;;;;1.53;1.43;;;5.40;99.90;;;;;;4980187;28;20228;-64
2021/12/24 11:18:16;;;;;;;2.07;1.87;;;5.40;99.90;;;;;;4968834;28;20196;-65
2021/12/24 11:20:42;;;;;;;1.67;1.57;;;5.30;99.90;;;;;;4982946;28;20255;-65
2021/12/24 11:23:13;;;;;;;1.50;1.40;;;5.20;99.90;;;;;;4985014;28;20196;-65
2021/12/24 11:25:48;;;;;;;1.60;1.50;;;5.10;99.90;;;;;;4969187;28;20201;-65
2021/12/24 11:28:16;;;;;;;1.40;1.30;;;5.10;99.90;;;;;;4956605;28;20208;-65
2021/12/24 11:30:44;;;;;;;1.20;1.17;;;5.10;99.90;;;;;;4974510;28;20206;-66
2021/12/24 11:33:16;;;;;;;1.20;1.10;;;5.10;99.90;;;;;;4988664;28;20250;-66
2021/12/24 11:35:47;;;;;;;1.20;1.20;;;5.00;99.90;;;;;;4969549;28;20224;-66
2021/12/24 11:38:22;;;;;;;1.73;1.63;;;5.00;99.90;;;;;;4963538;28;20189;-66
2021/12/24 11:40:49;;;;;;;1.20;1.10;;;4.90;99.90;;;;;;4974682;28;20232;-65
2021/12/24 11:43:17;;;;;;;0.80;0.80;;;4.90;99.90;;;;;;4988468;28;20796;-66
2021/12/24 11:45:42;;;;;;;1.10;1.00;;;4.80;99.90;;;;;;4969375;28;20196;-67
2021/12/24 11:48:08;;;;;;;0.97;0.97;;;4.80;99.90;;;;;;4974910;28;20255;-67
2021/12/24 11:50:35;;;;;;;0.90;0.90;;;4.70;99.90;;;;;;4970543;28;20198;-66
2021/12/24 11:53:08;;;;;;;0.67;0.67;;;4.70;99.90;;;;;;4988796;28;20394;-65
2021/12/24 11:55:42;;;;;;;1.20;0.90;;;4.60;99.90;;;;;;4971050;28;20596;-67
2021/12/24 11:58:33;;;;;;;0.97;0.93;;;4.60;99.90;;;;;;4975644;28;20192;-66
2021/12/24 12:01:04;;;;;;;5.00;1.37;;;4.50;99.90;;;;;;4978131;28;20244;-65
2021/12/24 12:03:31;;;;;;;1.10;1.00;;;4.50;99.90;;;;;;4973775;28;20215;-65
2021/12/24 12:05:57;;;;;;;1.00;1.00;;;4.40;99.90;;;;;;4984329;28;20628;-65
2021/12/24 12:08:25;;;;;;;1.40;1.30;;;4.40;99.90;;;;;;4986047;28;20296;-67
2021/12/24 12:11:19;;;;;;;1.20;1.10;;;4.30;99.90;;;;;;4977911;28;20204;-67
2021/12/24 12:14:01;;;;;;;1.30;1.30;;;4.30;99.90;;;;;;4962091;28;20197;-67
2021/12/24 12:16:39;;;;;;;0.97;0.90;;;4.30;99.90;;;;;;4988643;28;20192;-66
2021/12/24 12:19:28;;;;;;;0.97;0.80;;;4.20;99.90;;;;;;4982821;28;20845;-66
2021/12/24 12:22:47;;;;;;;1.27;0.90;;;4.10;99.90;;;;;;4981276;28;20652;-66
2021/12/24 12:25:09;;;;;;;1.10;0.93;;;3.90;99.90;;;;;;4982061;28;20217;-66
2021/12/24 12:27:44;;;;;;;1.10;1.10;;;3.80;99.90;;;;;;4955143;28;20703;-66
2021/12/24 12:30:31;;;;;;;0.90;0.90;;;3.70;99.90;;;;;;4966968;28;20292;-66
2021/12/24 12:33:00;;;;;;;0.97;0.80;;;3.70;99.90;;;;;;4988334;28;20222;-66
2021/12/24 12:35:42;;;;;;;2.30;1.00;;;3.60;99.90;;;;;;4973278;28;20255;-66
2021/12/24 12:38:38;;;;;;;1.57;0.80;;;3.50;99.90;;;;;;4968614;28;20189;-66
2021/12/24 12:41:34;;;;;;;1.50;1.07;;;3.50;99.90;;;;;;4966790;28;20220;-66
2021/12/24 12:44:03;;;;;;;1.27;1.20;;;3.40;99.90;;;;;;4967172;28;20644;-65
2021/12/24 12:46:34;;;;;;;1.23;1.17;;;3.40;99.90;;;;;;4969846;28;20237;-66
2021/12/24 12:49:03;;;;;;;1.40;1.30;;;3.30;99.90;;;;;;4965507;28;21312;-65
2021/12/24 12:51:52;;;;;;;1.10;1.10;;;3.20;99.90;;;;;;4969576;28;20170;-65
2021/12/24 12:54:40;;;;;;;1.30;1.20;;;3.20;99.90;;;;;;4966982;28;20209;-65
2021/12/24 12:57:10;;;;;;;1.67;1.40;;;3.10;99.90;;;;;;4968222;28;20665;-66
2021/12/24 12:59:35;;;;;;;2.07;1.47;;;3.10;99.90;;;;;;4977559;28;20263;-67
2021/12/24 13:02:02;;;;;;;1.60;1.50;;;3.00;99.90;;;;;;4979193;28;20189;-67
2021/12/24 13:04:27;;;;;;;1.50;1.40;;;2.90;99.90;;;;;;4975631;28;20193;-65
2021/12/24 13:06:55;;;;;;;2.17;1.97;;;3.00;99.90;;;;;;4975559;28;20287;-65
2021/12/24 13:09:32;;;;;;;2.63;1.80;;;2.90;99.90;;;;;;4979764;28;20197;-66
2021/12/24 13:11:58;;;;;;;1.90;1.70;;;2.80;99.90;;;;;;4977354;28;20187;-71
2021/12/24 13:14:27;;;;;;;2.20;2.00;;;2.90;99.90;;;;;;4984939;28;20216;-68
2021/12/24 13:17:16;;;;;;;3.03;2.40;;;3.00;99.90;;;;;;4987416;28;20651;-67
2021/12/24 13:22:29;;;;;;;3.23;2.20;;;2.90;99.90;;;;;;4943718;28;20627;-70
2021/12/24 13:25:02;;;;;;;4.40;2.40;;;2.90;99.90;;;;;;4959174;28;20208;-68
2021/12/24 13:27:37;;;;;;;2.63;2.43;;;2.80;99.90;;;;;;4968225;28;20228;-68
2021/12/24 13:30:10;;;;;;;2.67;2.30;;;2.80;99.90;;;;;;4957308;28;20687;-77
2021/12/24 13:32:39;;;;;;;2.60;2.40;;;2.80;99.90;;;;;;4969189;28;20229;-69
2021/12/24 13:35:05;;;;;;;2.70;2.50;;;2.70;99.90;;;;;;4986444;28;20216;-69
2021/12/24 13:37:33;;;;;;;2.90;2.70;;;2.70;99.90;;;;;;4974357;28;20216;-69
2021/12/24 13:39:58;;;;;;;3.47;3.17;;;2.70;99.90;;;;;;4986451;28;20315;-69
2021/12/24 13:42:24;;;;;;;3.30;3.00;;;2.70;99.90;;;;;;4978044;28;20303;-70
2021/12/24 13:44:59;;;;;;;3.27;2.97;;;2.70;99.90;;;;;;4985514;28;20235;-69
2021/12/24 13:47:40;;;;;;;3.97;3.27;;;2.60;99.90;;;;;;4969825;28;20217;-70
2021/12/24 13:55:32;;;;;;;4.43;4.00;;;2.50;99.90;;;;;;4982724;28;20187;-69
2021/12/24 13:58:07;;;;;;;4.37;4.00;;;2.50;99.90;;;;;;4979513;28;20702;-68
2021/12/24 14:00:35;;;;;;;4.90;4.47;;;2.50;99.90;;;;;;4966294;28;20701;-67
2021/12/24 14:03:04;;;;;;;6.20;4.83;;;2.30;99.90;;;;;;4970318;28;20201;-66
2021/12/24 14:05:29;;;;;;;5.67;4.53;;;2.30;99.90;;;;;;4985104;28;20200;-68
2021/12/24 14:08:05;;;;;;;5.00;4.47;;;2.30;99.90;;;;;;4975596;28;20209;-67
2021/12/24 14:10:33;;;;;;;5.37;4.87;;;2.30;99.90;;;;;;4986187;28;20192;-67
2021/12/24 14:13:06;;;;;;;5.40;4.87;;;2.30;99.90;;;;;;4979102;28;20201;-68
2021/12/24 14:15:43;;;;;;;6.80;5.03;;;2.30;99.90;;;;;;4949851;28;20205;-65
2021/12/24 14:18:42;;;;;;;4.73;4.33;;;2.20;99.90;;;;;;4978012;28;20196;-87
2021/12/24 14:24:11;;;;;;;5.87;5.20;;;2.20;99.90;;;;;;4979055;28;20195;-67
2021/12/24 14:26:39;;;;;;;5.47;4.97;;;2.10;99.90;;;;;;4983500;28;20219;-78
2021/12/24 14:29:07;;;;;;;5.93;4.63;;;2.20;99.90;;;;;;4985614;28;20280;-66
2021/12/24 14:31:48;;;;;;;7.30;5.40;;;2.20;99.90;;;;;;4976108;28;20262;-68
2021/12/24 14:34:41;;;;;;;5.90;5.10;;;2.10;99.90;;;;;;4966822;28;20200;-68
2021/12/24 14:37:21;;;;;;;5.70;5.20;;;2.10;99.90;;;;;;4982427;28;20647;-68
2021/12/24 14:39:53;;;;;;;6.50;5.00;;;2.10;99.90;;;;;;4964973;28;20267;-69
2021/12/24 14:42:29;;;;;;;6.27;5.67;;;2.10;99.90;;;;;;4977384;28;20201;-69
2021/12/24 14:45:11;;;;;;;5.63;5.10;;;2.10;99.90;;;;;;4975796;28;20201;-69